This is the latest recevied weather packets stored in our database for station/object WB5CFT. If no packets are shown the sender has not sent any weather packets the latest 10 day(s).
| Time | Temp. | Humidity | Pressure | Rain* | Wind** | Luminosity | Snow |
|---|---|---|---|---|---|---|---|
| 1777750962 | 17.22° C | 46% | 1024.7 hPa | 0 mm | - | 885 W/m² | - |
| 1777750657 | 17.78° C | 44% | 1024.6 hPa | 0 mm | - | 794 W/m² | - |
| 1777750355 | 17.22° C | 46% | 1024.7 hPa | 0 mm | - | 834 W/m² | - |
| 1777750054 | 17.78° C | 44% | 1024.8 hPa | 0 mm | - | 957 W/m² | - |
| 1777749753 | 17.78° C | 46% | 1024.8 hPa | 0 mm | - | 634 W/m² | - |
| 1777749449 | 17.22° C | 47% | 1024.7 hPa | 0 mm | - | 753 W/m² | - |
| 1777749147 | 16.67° C | 48% | 1024.9 hPa | 0 mm | - | 647 W/m² | - |
| 1777748844 | 17.22° C | 47% | 1025 hPa | 0 mm | - | 596 W/m² | - |
| 1777748541 | 17.78° C | 50% | 1025 hPa | 0 mm | - | 667 W/m² | - |
| 1777748241 | 16.67° C | 50% | 1025.1 hPa | 0 mm | - | 814 W/m² | - |
| 1777747938 | 17.22° C | 50% | 1025.2 hPa | 0 mm | - | 620 W/m² | - |
| 1777747634 | 17.22° C | 51% | 1025.1 hPa | 0 mm | - | 546 W/m² | - |
| 1777747329 | 16.67° C | 50% | 1025.2 hPa | 0 mm | - | 626 W/m² | - |
| 1777747026 | 16.11° C | 52% | 1025.4 hPa | 0 mm | - | 455 W/m² | - |
| 1777746722 | 16.67° C | 50% | 1025.3 hPa | 0 mm | - | 791 W/m² | - |
| 1777746418 | 15.56° C | 52% | 1025.8 hPa | 0 mm | - | 644 W/m² | - |
| 1777746113 | 16.11° C | 53% | 1025.5 hPa | 0 mm | - | 715 W/m² | - |
| 1777745811 | 15.56° C | 54% | 1025.5 hPa | 0 mm | - | 588 W/m² | - |
| 1777745510 | 16.11° C | 54% | 1025.5 hPa | 0 mm | - | 801 W/m² | - |
| 1777745206 | 16.11° C | 52% | 1025.5 hPa | 0 mm | - | 613 W/m² | - |
| 1777744904 | 15.56° C | 56% | 1025.8 hPa | 0 mm | - | 890 W/m² | - |
| 1777744603 | 16.11° C | 54% | 1025.9 hPa | 0 mm | - | 869 W/m² | - |
| 1777744298 | 15.56° C | 56% | 1025.7 hPa | 0 mm | - | 809 W/m² | - |
| 1777743996 | 16.67° C | 54% | 1026 hPa | 0 mm | - | 677 W/m² | - |
| 1777743692 | 15.56° C | 55% | 1025.9 hPa | 0 mm | - | 673 W/m² | - |
* Rain latest hour (hover to see other rain measurements)
** Current wind speed in m/s (hover to see current wind gust speed)